KCKN/CKN METAR and TAF weather

Enter ICAO airport designator
Station Type Date Time Source
KCKN METAR 2020/02/29 03:15 UTC NOAA

KCKN 290315Z AUTO 18011KT 10SM OVC007 M09/M11 A3010 RMK AO2


Station Type Date Time Source
KCKN Decoded METAR 2020/02/29 03:15 UTC NOAA

Crookston Municipal Field, MN, United States (KCKN) 47-51N 096-37W
Feb 28, 2020 - 10:15 PM EST / 2020.02.29 0315 UTC
Wind: from the S (180 degrees) at 13 MPH (11 KT):0
Visibility: 10 mile(s):0
Sky conditions: overcast
Temperature: 15 F (-9 C)
Windchill: 1 F (-17 C):1
Dew Point: 12 F (-11 C)
Relative Humidity: 85%
Pressure (altimeter): 30.1 in. Hg (1019 hPa)
ob: KCKN 290315Z AUTO 18011KT 10SM OVC007 M09/M11 A3010 RMK AO2
cycle: 3

Station Type Date Time Source
KCKN TAF UTC NOAA

Error!

Example: see airport list